< < Back
Terminal Aerodrome Forecast


Current Version              Previous Versions:   1  2  3  4  5  6  7  8  9  

Terminal Aerodrome Forecast

815
FTUS44 KHUN 262331
TAFHSV
TAF
KHSV 262331Z 2700/2724 VRB04KT P6SM FEW250
      TEMPO 2709/2712 4SM BR
     FM271500 25008KT P6SM SCT200
     FM272000 26012G18KT P6SM FEW060 SCT200=



Latest METAR

662
SAUS80 KWBC 280400 RRA
MTRHSV
METAR KHSV 280353Z 24005KT 10SM SCT036 28/23 A2995 RMK AO2 SLP131
T02780233 $


USA.gov is the U.S. government's official web portal to all federal, state and local government web resources and services.